sensor_id;sensor_type;location;lat;lon;timestamp;P1;durP1;ratioP1;P2;durP2;ratioP2
62903;SDS011;49000;50.698;13.322;2023-09-19T00:00:19;1.40;;;0.97;;
62903;SDS011;49000;50.698;13.322;2023-09-19T00:02:55;2.47;;;1.40;;
62903;SDS011;49000;50.698;13.322;2023-09-19T00:05:24;2.70;;;1.40;;
62903;SDS011;49000;50.698;13.322;2023-09-19T00:07:53;1.93;;;1.00;;
62903;SDS011;49000;50.698;13.322;2023-09-19T00:10:19;2.63;;;1.40;;
62903;SDS011;49000;50.698;13.322;2023-09-19T00:12:49;4.23;;;1.23;;
62903;SDS011;49000;50.698;13.322;2023-09-19T00:15:24;2.50;;;1.27;;
62903;SDS011;49000;50.698;13.322;2023-09-19T00:17:53;3.07;;;1.40;;
62903;SDS011;49000;50.698;13.322;2023-09-19T00:20:22;3.37;;;1.23;;
62903;SDS011;49000;50.698;13.322;2023-09-19T00:22:49;2.73;;;1.33;;
62903;SDS011;49000;50.698;13.322;2023-09-19T00:25:18;1.50;;;1.20;;
62903;SDS011;49000;50.698;13.322;2023-09-19T00:27:45;1.70;;;1.20;;
62903;SDS011;49000;50.698;13.322;2023-09-19T00:30:12;2.43;;;1.23;;
62903;SDS011;49000;50.698;13.322;2023-09-19T00:32:44;1.57;;;1.20;;
62903;SDS011;49000;50.698;13.322;2023-09-19T00:35:12;3.23;;;1.57;;
62903;SDS011;49000;50.698;13.322;2023-09-19T00:37:40;1.63;;;1.33;;
62903;SDS011;49000;50.698;13.322;2023-09-19T00:40:09;3.33;;;1.40;;
62903;SDS011;49000;50.698;13.322;2023-09-19T00:42:40;2.33;;;1.20;;
62903;SDS011;49000;50.698;13.322;2023-09-19T00:45:07;3.10;;;1.30;;
62903;SDS011;49000;50.698;13.322;2023-09-19T00:47:35;2.10;;;1.20;;
62903;SDS011;49000;50.698;13.322;2023-09-19T00:50:02;2.50;;;1.40;;
62903;SDS011;49000;50.698;13.322;2023-09-19T00:52:32;2.20;;;1.27;;
62903;SDS011;49000;50.698;13.322;2023-09-19T00:54:58;2.70;;;1.40;;
62903;SDS011;49000;50.698;13.322;2023-09-19T00:57:25;2.43;;;1.20;;
62903;SDS011;49000;50.698;13.322;2023-09-19T00:59:51;2.03;;;1.23;;
62903;SDS011;49000;50.698;13.322;2023-09-19T01:02:19;2.90;;;1.33;;
62903;SDS011;49000;50.698;13.322;2023-09-19T01:04:46;2.50;;;1.00;;
62903;SDS011;49000;50.698;13.322;2023-09-19T01:07:12;1.50;;;1.10;;
62903;SDS011;49000;50.698;13.322;2023-09-19T01:09:40;2.23;;;1.50;;
62903;SDS011;49000;50.698;13.322;2023-09-19T01:12:06;1.40;;;0.87;;
62903;SDS011;49000;50.698;13.322;2023-09-19T01:17:27;2.93;;;1.00;;
62903;SDS011;49000;50.698;13.322;2023-09-19T01:20:11;3.20;;;0.90;;
62903;SDS011;49000;50.698;13.322;2023-09-19T01:31:06;3.33;;;1.33;;
62903;SDS011;49000;50.698;13.322;2023-09-19T01:33:54;2.23;;;1.30;;
62903;SDS011;49000;50.698;13.322;2023-09-19T01:36:31;1.57;;;1.13;;
62903;SDS011;49000;50.698;13.322;2023-09-19T01:39:07;0.80;;;0.73;;
62903;SDS011;49000;50.698;13.322;2023-09-19T01:44:46;2.97;;;1.00;;
62903;SDS011;49000;50.698;13.322;2023-09-19T01:47:43;1.80;;;1.10;;
62903;SDS011;49000;50.698;13.322;2023-09-19T01:52:56;1.40;;;0.90;;
62903;SDS011;49000;50.698;13.322;2023-09-19T01:55:28;2.67;;;1.00;;
62903;SDS011;49000;50.698;13.322;2023-09-19T01:58:01;1.50;;;0.90;;
62903;SDS011;49000;50.698;13.322;2023-09-19T02:00:32;1.30;;;0.90;;
62903;SDS011;49000;50.698;13.322;2023-09-19T02:03:01;1.07;;;0.80;;
62903;SDS011;49000;50.698;13.322;2023-09-19T02:05:27;1.60;;;0.90;;
62903;SDS011;49000;50.698;13.322;2023-09-19T02:07:53;1.20;;;0.90;;
62903;SDS011;49000;50.698;13.322;2023-09-19T02:10:20;0.90;;;0.80;;
62903;SDS011;49000;50.698;13.322;2023-09-19T02:12:46;1.03;;;0.90;;
62903;SDS011;49000;50.698;13.322;2023-09-19T02:15:12;0.87;;;0.70;;
62903;SDS011;49000;50.698;13.322;2023-09-19T02:17:40;1.27;;;0.87;;
62903;SDS011;49000;50.698;13.322;2023-09-19T02:20:07;1.10;;;1.00;;
62903;SDS011;49000;50.698;13.322;2023-09-19T02:22:35;0.80;;;0.70;;
62903;SDS011;49000;50.698;13.322;2023-09-19T02:25:01;3.67;;;0.80;;
62903;SDS011;49000;50.698;13.322;2023-09-19T02:27:26;3.03;;;0.90;;
62903;SDS011;49000;50.698;13.322;2023-09-19T02:29:52;1.07;;;0.60;;
62903;SDS011;49000;50.698;13.322;2023-09-19T02:32:17;1.80;;;0.90;;
62903;SDS011;49000;50.698;13.322;2023-09-19T02:34:43;1.83;;;0.63;;
62903;SDS011;49000;50.698;13.322;2023-09-19T02:37:10;0.93;;;0.70;;
62903;SDS011;49000;50.698;13.322;2023-09-19T02:39:35;1.93;;;0.90;;
62903;SDS011;49000;50.698;13.322;2023-09-19T02:42:01;1.60;;;0.80;;
62903;SDS011;49000;50.698;13.322;2023-09-19T02:44:29;1.27;;;0.70;;
62903;SDS011;49000;50.698;13.322;2023-09-19T02:46:54;1.10;;;0.60;;
62903;SDS011;49000;50.698;13.322;2023-09-19T02:49:22;1.30;;;0.67;;
62903;SDS011;49000;50.698;13.322;2023-09-19T02:51:48;1.13;;;0.70;;
62903;SDS011;49000;50.698;13.322;2023-09-19T02:54:14;0.73;;;0.70;;
62903;SDS011;49000;50.698;13.322;2023-09-19T02:56:40;1.37;;;0.87;;
62903;SDS011;49000;50.698;13.322;2023-09-19T02:59:06;1.23;;;0.87;;
62903;SDS011;49000;50.698;13.322;2023-09-19T03:01:32;1.07;;;0.77;;
62903;SDS011;49000;50.698;13.322;2023-09-19T03:03:58;2.63;;;0.80;;
62903;SDS011;49000;50.698;13.322;2023-09-19T03:06:24;0.90;;;0.70;;
62903;SDS011;49000;50.698;13.322;2023-09-19T03:08:49;1.30;;;0.60;;
62903;SDS011;49000;50.698;13.322;2023-09-19T03:11:16;2.50;;;0.90;;
62903;SDS011;49000;50.698;13.322;2023-09-19T03:13:46;0.90;;;0.80;;
62903;SDS011;49000;50.698;13.322;2023-09-19T03:16:21;1.40;;;1.13;;
62903;SDS011;49000;50.698;13.322;2023-09-19T03:18:50;1.00;;;0.70;;
62903;SDS011;49000;50.698;13.322;2023-09-19T03:21:16;1.80;;;0.80;;
62903;SDS011;49000;50.698;13.322;2023-09-19T03:23:42;0.90;;;0.60;;
62903;SDS011;49000;50.698;13.322;2023-09-19T03:26:10;2.37;;;0.70;;
62903;SDS011;49000;50.698;13.322;2023-09-19T03:28:42;1.93;;;0.80;;
62903;SDS011;49000;50.698;13.322;2023-09-19T03:31:08;2.40;;;0.70;;
62903;SDS011;49000;50.698;13.322;2023-09-19T03:33:34;0.80;;;0.80;;
62903;SDS011;49000;50.698;13.322;2023-09-19T03:36:01;1.10;;;0.80;;
62903;SDS011;49000;50.698;13.322;2023-09-19T03:38:30;1.77;;;1.00;;
62903;SDS011;49000;50.698;13.322;2023-09-19T03:40:57;2.60;;;1.13;;
62903;SDS011;49000;50.698;13.322;2023-09-19T03:43:22;2.60;;;0.83;;
62903;SDS011;49000;50.698;13.322;2023-09-19T03:45:48;3.10;;;0.87;;
62903;SDS011;49000;50.698;13.322;2023-09-19T03:48:15;2.43;;;0.80;;
62903;SDS011;49000;50.698;13.322;2023-09-19T03:50:41;1.17;;;0.97;;
62903;SDS011;49000;50.698;13.322;2023-09-19T03:53:08;1.27;;;1.00;;
62903;SDS011;49000;50.698;13.322;2023-09-19T03:55:34;1.20;;;1.10;;
62903;SDS011;49000;50.698;13.322;2023-09-19T03:58:06;2.13;;;1.00;;
62903;SDS011;49000;50.698;13.322;2023-09-19T04:00:31;1.90;;;1.10;;
62903;SDS011;49000;50.698;13.322;2023-09-19T04:02:57;1.83;;;1.33;;
62903;SDS011;49000;50.698;13.322;2023-09-19T04:05:23;2.90;;;1.43;;
62903;SDS011;49000;50.698;13.322;2023-09-19T04:07:49;4.47;;;1.40;;
62903;SDS011;49000;50.698;13.322;2023-09-19T04:10:18;2.50;;;1.60;;
62903;SDS011;49000;50.698;13.322;2023-09-19T04:12:53;1.53;;;1.43;;
62903;SDS011;49000;50.698;13.322;2023-09-19T04:15:20;2.27;;;1.40;;
62903;SDS011;49000;50.698;13.322;2023-09-19T04:17:48;3.97;;;1.70;;
62903;SDS011;49000;50.698;13.322;2023-09-19T04:20:14;1.27;;;1.13;;
62903;SDS011;49000;50.698;13.322;2023-09-19T04:22:40;2.00;;;1.80;;
62903;SDS011;49000;50.698;13.322;2023-09-19T04:25:06;3.80;;;1.70;;
62903;SDS011;49000;50.698;13.322;2023-09-19T04:27:32;3.73;;;1.73;;
62903;SDS011;49000;50.698;13.322;2023-09-19T04:29:58;3.10;;;1.70;;
62903;SDS011;49000;50.698;13.322;2023-09-19T04:32:29;1.47;;;1.17;;
62903;SDS011;49000;50.698;13.322;2023-09-19T04:34:54;1.53;;;1.20;;
62903;SDS011;49000;50.698;13.322;2023-09-19T04:37:24;2.53;;;1.23;;
62903;SDS011;49000;50.698;13.322;2023-09-19T04:39:50;4.43;;;1.40;;
62903;SDS011;49000;50.698;13.322;2023-09-19T04:42:15;2.17;;;1.30;;
62903;SDS011;49000;50.698;13.322;2023-09-19T04:44:42;1.77;;;1.30;;
62903;SDS011;49000;50.698;13.322;2023-09-19T04:47:08;2.40;;;1.13;;
62903;SDS011;49000;50.698;13.322;2023-09-19T04:49:33;2.47;;;1.10;;
62903;SDS011;49000;50.698;13.322;2023-09-19T04:52:00;2.93;;;1.50;;
62903;SDS011;49000;50.698;13.322;2023-09-19T04:54:25;2.43;;;1.40;;
62903;SDS011;49000;50.698;13.322;2023-09-19T04:56:52;1.97;;;1.53;;
62903;SDS011;49000;50.698;13.322;2023-09-19T04:59:17;2.30;;;1.37;;
62903;SDS011;49000;50.698;13.322;2023-09-19T05:01:43;1.80;;;1.23;;
62903;SDS011;49000;50.698;13.322;2023-09-19T05:04:08;3.60;;;1.57;;
62903;SDS011;49000;50.698;13.322;2023-09-19T05:06:34;1.90;;;1.37;;
62903;SDS011;49000;50.698;13.322;2023-09-19T05:09:00;2.00;;;1.40;;
62903;SDS011;49000;50.698;13.322;2023-09-19T05:11:26;2.40;;;1.30;;
62903;SDS011;49000;50.698;13.322;2023-09-19T05:13:52;1.90;;;1.17;;
62903;SDS011;49000;50.698;13.322;2023-09-19T05:16:18;3.43;;;1.27;;
62903;SDS011;49000;50.698;13.322;2023-09-19T05:18:43;1.63;;;1.47;;
62903;SDS011;49000;50.698;13.322;2023-09-19T05:21:09;1.80;;;1.40;;
62903;SDS011;49000;50.698;13.322;2023-09-19T05:23:34;1.50;;;1.17;;
62903;SDS011;49000;50.698;13.322;2023-09-19T05:26:00;2.10;;;1.50;;
62903;SDS011;49000;50.698;13.322;2023-09-19T05:28:26;3.33;;;1.60;;
62903;SDS011;49000;50.698;13.322;2023-09-19T05:30:52;2.47;;;1.30;;
62903;SDS011;49000;50.698;13.322;2023-09-19T05:33:18;1.57;;;1.23;;
62903;SDS011;49000;50.698;13.322;2023-09-19T05:35:44;1.77;;;1.10;;
62903;SDS011;49000;50.698;13.322;2023-09-19T05:38:12;2.67;;;1.30;;
62903;SDS011;49000;50.698;13.322;2023-09-19T05:40:39;2.87;;;1.37;;
62903;SDS011;49000;50.698;13.322;2023-09-19T05:43:07;2.00;;;1.40;;
62903;SDS011;49000;50.698;13.322;2023-09-19T05:45:33;1.10;;;1.00;;
62903;SDS011;49000;50.698;13.322;2023-09-19T05:48:06;3.67;;;1.30;;
62903;SDS011;49000;50.698;13.322;2023-09-19T05:50:38;3.03;;;1.40;;
62903;SDS011;49000;50.698;13.322;2023-09-19T05:53:04;1.67;;;1.20;;
62903;SDS011;49000;50.698;13.322;2023-09-19T05:55:30;1.90;;;1.03;;
62903;SDS011;49000;50.698;13.322;2023-09-19T05:57:56;0.87;;;0.80;;
62903;SDS011;49000;50.698;13.322;2023-09-19T06:00:22;1.20;;;1.10;;
62903;SDS011;49000;50.698;13.322;2023-09-19T06:02:54;1.33;;;1.10;;
62903;SDS011;49000;50.698;13.322;2023-09-19T06:05:22;1.73;;;1.40;;
62903;SDS011;49000;50.698;13.322;2023-09-19T06:07:48;2.23;;;1.50;;
62903;SDS011;49000;50.698;13.322;2023-09-19T06:10:15;2.67;;;1.50;;
62903;SDS011;49000;50.698;13.322;2023-09-19T06:12:42;2.27;;;1.10;;
62903;SDS011;49000;50.698;13.322;2023-09-19T06:15:11;1.90;;;1.10;;
62903;SDS011;49000;50.698;13.322;2023-09-19T06:17:53;1.53;;;1.10;;
62903;SDS011;49000;50.698;13.322;2023-09-19T06:20:20;3.80;;;1.00;;
62903;SDS011;49000;50.698;13.322;2023-09-19T06:22:47;1.77;;;0.97;;
62903;SDS011;49000;50.698;13.322;2023-09-19T06:25:13;2.20;;;1.50;;
62903;SDS011;49000;50.698;13.322;2023-09-19T06:27:44;2.63;;;1.23;;
62903;SDS011;49000;50.698;13.322;2023-09-19T06:30:10;1.70;;;0.93;;
62903;SDS011;49000;50.698;13.322;2023-09-19T06:32:36;1.43;;;1.10;;
62903;SDS011;49000;50.698;13.322;2023-09-19T06:35:02;1.30;;;1.10;;
62903;SDS011;49000;50.698;13.322;2023-09-19T06:37:29;1.60;;;1.10;;
62903;SDS011;49000;50.698;13.322;2023-09-19T06:39:54;1.30;;;1.00;;
62903;SDS011;49000;50.698;13.322;2023-09-19T06:42:20;3.90;;;1.40;;
62903;SDS011;49000;50.698;13.322;2023-09-19T06:44:47;2.43;;;1.10;;
62903;SDS011;49000;50.698;13.322;2023-09-19T06:47:13;2.87;;;1.30;;
62903;SDS011;49000;50.698;13.322;2023-09-19T06:49:39;1.90;;;1.20;;
62903;SDS011;49000;50.698;13.322;2023-09-19T06:52:04;2.60;;;1.00;;
62903;SDS011;49000;50.698;13.322;2023-09-19T06:54:30;1.37;;;1.20;;
62903;SDS011;49000;50.698;13.322;2023-09-19T06:56:56;1.37;;;1.17;;
62903;SDS011;49000;50.698;13.322;2023-09-19T06:59:23;2.33;;;0.93;;
62903;SDS011;49000;50.698;13.322;2023-09-19T07:01:49;1.23;;;1.00;;
62903;SDS011;49000;50.698;13.322;2023-09-19T07:04:15;1.10;;;1.00;;
62903;SDS011;49000;50.698;13.322;2023-09-19T07:06:41;2.77;;;1.20;;
62903;SDS011;49000;50.698;13.322;2023-09-19T07:09:07;2.47;;;1.20;;
62903;SDS011;49000;50.698;13.322;2023-09-19T07:11:33;1.57;;;1.10;;
62903;SDS011;49000;50.698;13.322;2023-09-19T07:13:59;1.63;;;1.00;;
62903;SDS011;49000;50.698;13.322;2023-09-19T07:16:24;2.67;;;1.07;;
62903;SDS011;49000;50.698;13.322;2023-09-19T07:18:54;1.60;;;1.30;;
62903;SDS011;49000;50.698;13.322;2023-09-19T07:21:21;1.40;;;1.00;;
62903;SDS011;49000;50.698;13.322;2023-09-19T07:23:47;0.80;;;0.80;;
62903;SDS011;49000;50.698;13.322;2023-09-19T07:26:13;2.50;;;1.10;;
62903;SDS011;49000;50.698;13.322;2023-09-19T07:28:38;3.20;;;1.20;;
62903;SDS011;49000;50.698;13.322;2023-09-19T07:31:04;2.07;;;1.10;;
62903;SDS011;49000;50.698;13.322;2023-09-19T07:33:30;1.20;;;1.10;;
62903;SDS011;49000;50.698;13.322;2023-09-19T07:35:56;2.30;;;1.03;;
62903;SDS011;49000;50.698;13.322;2023-09-19T07:38:21;1.50;;;1.20;;
62903;SDS011;49000;50.698;13.322;2023-09-19T07:40:47;1.83;;;0.90;;
62903;SDS011;49000;50.698;13.322;2023-09-19T07:43:13;2.03;;;1.20;;
62903;SDS011;49000;50.698;13.322;2023-09-19T07:45:39;1.90;;;1.10;;
62903;SDS011;49000;50.698;13.322;2023-09-19T07:48:04;1.90;;;1.23;;
62903;SDS011;49000;50.698;13.322;2023-09-19T07:50:32;1.93;;;0.90;;
62903;SDS011;49000;50.698;13.322;2023-09-19T07:52:58;1.80;;;1.57;;
62903;SDS011;49000;50.698;13.322;2023-09-19T07:55:24;1.50;;;1.07;;
62903;SDS011;49000;50.698;13.322;2023-09-19T07:57:50;1.87;;;1.10;;
62903;SDS011;49000;50.698;13.322;2023-09-19T08:00:19;3.07;;;1.00;;
62903;SDS011;49000;50.698;13.322;2023-09-19T08:02:44;1.83;;;1.13;;
62903;SDS011;49000;50.698;13.322;2023-09-19T08:05:10;2.90;;;1.20;;
62903;SDS011;49000;50.698;13.322;2023-09-19T08:07:37;3.10;;;1.10;;
62903;SDS011;49000;50.698;13.322;2023-09-19T08:10:04;1.50;;;1.00;;
62903;SDS011;49000;50.698;13.322;2023-09-19T08:12:32;1.20;;;1.10;;
62903;SDS011;49000;50.698;13.322;2023-09-19T08:15:00;3.73;;;1.07;;
62903;SDS011;49000;50.698;13.322;2023-09-19T08:17:27;1.43;;;1.00;;
62903;SDS011;49000;50.698;13.322;2023-09-19T08:19:53;2.60;;;1.10;;
62903;SDS011;49000;50.698;13.322;2023-09-19T08:22:21;2.33;;;1.13;;
62903;SDS011;49000;50.698;13.322;2023-09-19T08:24:48;1.52;;;1.00;;
62903;SDS011;49000;50.698;13.322;2023-09-19T08:27:14;1.45;;;1.10;;
62903;SDS011;49000;50.698;13.322;2023-09-19T08:29:40;3.63;;;1.20;;
62903;SDS011;49000;50.698;13.322;2023-09-19T08:32:07;3.07;;;1.10;;
62903;SDS011;49000;50.698;13.322;2023-09-19T08:34:32;1.85;;;1.33;;
62903;SDS011;49000;50.698;13.322;2023-09-19T08:36:58;1.73;;;1.10;;
62903;SDS011;49000;50.698;13.322;2023-09-19T08:39:25;1.90;;;1.30;;
62903;SDS011;49000;50.698;13.322;2023-09-19T08:42:00;2.55;;;1.50;;
62903;SDS011;49000;50.698;13.322;2023-09-19T08:44:26;1.83;;;1.30;;
62903;SDS011;49000;50.698;13.322;2023-09-19T08:46:58;3.42;;;1.10;;
62903;SDS011;49000;50.698;13.322;2023-09-19T08:49:36;2.10;;;1.48;;
62903;SDS011;49000;50.698;13.322;2023-09-19T08:52:27;2.03;;;1.30;;
62903;SDS011;49000;50.698;13.322;2023-09-19T08:55:02;3.53;;;1.35;;
62903;SDS011;49000;50.698;13.322;2023-09-19T08:57:35;1.48;;;1.27;;
62903;SDS011;49000;50.698;13.322;2023-09-19T09:00:06;2.35;;;1.10;;
62903;SDS011;49000;50.698;13.322;2023-09-19T09:02:37;2.95;;;1.10;;
62903;SDS011;49000;50.698;13.322;2023-09-19T09:05:08;2.97;;;1.25;;
62903;SDS011;49000;50.698;13.322;2023-09-19T09:07:35;1.73;;;1.10;;
62903;SDS011;49000;50.698;13.322;2023-09-19T09:10:05;1.23;;;1.13;;
62903;SDS011;49000;50.698;13.322;2023-09-19T09:12:32;1.50;;;1.10;;
62903;SDS011;49000;50.698;13.322;2023-09-19T09:15:01;1.20;;;1.00;;
62903;SDS011;49000;50.698;13.322;2023-09-19T09:17:30;2.63;;;1.10;;
62903;SDS011;49000;50.698;13.322;2023-09-19T09:19:55;1.80;;;1.20;;
62903;SDS011;49000;50.698;13.322;2023-09-19T09:22:21;1.75;;;1.10;;
62903;SDS011;49000;50.698;13.322;2023-09-19T09:24:52;1.20;;;1.08;;
62903;SDS011;49000;50.698;13.322;2023-09-19T09:27:19;2.17;;;1.10;;
62903;SDS011;49000;50.698;13.322;2023-09-19T09:29:46;1.52;;;1.00;;
62903;SDS011;49000;50.698;13.322;2023-09-19T09:32:22;1.55;;;1.17;;
62903;SDS011;49000;50.698;13.322;2023-09-19T09:34:53;2.20;;;1.30;;
62903;SDS011;49000;50.698;13.322;2023-09-19T09:37:20;2.25;;;1.13;;
62903;SDS011;49000;50.698;13.322;2023-09-19T09:39:53;1.92;;;1.40;;
62903;SDS011;49000;50.698;13.322;2023-09-19T09:42:31;1.80;;;1.30;;
62903;SDS011;49000;50.698;13.322;2023-09-19T09:47:47;1.98;;;1.20;;
62903;SDS011;49000;50.698;13.322;2023-09-19T09:50:32;1.75;;;1.10;;
62903;SDS011;49000;50.698;13.322;2023-09-19T09:53:24;1.40;;;1.02;;
62903;SDS011;49000;50.698;13.322;2023-09-19T09:58:22;1.85;;;1.00;;
62903;SDS011;49000;50.698;13.322;2023-09-19T10:00:54;2.50;;;1.10;;
62903;SDS011;49000;50.698;13.322;2023-09-19T10:03:39;1.40;;;0.90;;
62903;SDS011;49000;50.698;13.322;2023-09-19T10:06:12;1.48;;;0.77;;
62903;SDS011;49000;50.698;13.322;2023-09-19T10:08:58;1.50;;;1.10;;
62903;SDS011;49000;50.698;13.322;2023-09-19T10:11:38;0.90;;;0.80;;
62903;SDS011;49000;50.698;13.322;2023-09-19T10:14:27;4.13;;;0.82;;
62903;SDS011;49000;50.698;13.322;2023-09-19T10:16:56;1.38;;;0.93;;
62903;SDS011;49000;50.698;13.322;2023-09-19T10:19:40;1.88;;;0.93;;
62903;SDS011;49000;50.698;13.322;2023-09-19T10:22:11;0.93;;;0.65;;
62903;SDS011;49000;50.698;13.322;2023-09-19T10:24:39;1.98;;;0.80;;
62903;SDS011;49000;50.698;13.322;2023-09-19T10:27:06;1.77;;;0.95;;
62903;SDS011;49000;50.698;13.322;2023-09-19T10:29:36;3.42;;;1.20;;
62903;SDS011;49000;50.698;13.322;2023-09-19T10:32:04;2.80;;;0.80;;
62903;SDS011;49000;50.698;13.322;2023-09-19T10:34:34;1.35;;;0.90;;
62903;SDS011;49000;50.698;13.322;2023-09-19T10:37:01;1.17;;;0.88;;
62903;SDS011;49000;50.698;13.322;2023-09-19T10:39:30;0.68;;;0.60;;
62903;SDS011;49000;50.698;13.322;2023-09-19T10:41:57;0.70;;;0.65;;
62903;SDS011;49000;50.698;13.322;2023-09-19T10:44:30;0.95;;;0.68;;
62903;SDS011;49000;50.698;13.322;2023-09-19T10:46:58;1.40;;;0.65;;
62903;SDS011;49000;50.698;13.322;2023-09-19T10:49:24;0.90;;;0.63;;
62903;SDS011;49000;50.698;13.322;2023-09-19T10:51:52;1.15;;;0.60;;
62903;SDS011;49000;50.698;13.322;2023-09-19T10:54:21;0.90;;;0.80;;
62903;SDS011;49000;50.698;13.322;2023-09-19T10:56:51;1.80;;;0.85;;
62903;SDS011;49000;50.698;13.322;2023-09-19T10:59:18;2.03;;;0.63;;
62903;SDS011;49000;50.698;13.322;2023-09-19T11:01:53;1.40;;;0.90;;
62903;SDS011;49000;50.698;13.322;2023-09-19T11:04:35;3.22;;;0.85;;
62903;SDS011;49000;50.698;13.322;2023-09-19T11:07:05;1.08;;;0.73;;
62903;SDS011;49000;50.698;13.322;2023-09-19T11:09:42;1.17;;;0.73;;
62903;SDS011;49000;50.698;13.322;2023-09-19T11:15:01;1.25;;;0.90;;
62903;SDS011;49000;50.698;13.322;2023-09-19T11:17:39;3.28;;;1.00;;
62903;SDS011;49000;50.698;13.322;2023-09-19T11:30:31;2.15;;;0.75;;
62903;SDS011;49000;50.698;13.322;2023-09-19T11:43:45;3.08;;;1.00;;
62903;SDS011;49000;50.698;13.322;2023-09-19T11:46:11;2.03;;;0.80;;
62903;SDS011;49000;50.698;13.322;2023-09-19T11:48:38;2.35;;;0.80;;
62903;SDS011;49000;50.698;13.322;2023-09-19T11:51:09;2.63;;;1.02;;
62903;SDS011;49000;50.698;13.322;2023-09-19T11:53:43;1.35;;;0.93;;
62903;SDS011;49000;50.698;13.322;2023-09-19T11:56:13;1.48;;;0.80;;
62903;SDS011;49000;50.698;13.322;2023-09-19T11:58:43;2.35;;;0.90;;
62903;SDS011;49000;50.698;13.322;2023-09-19T12:01:12;1.05;;;0.80;;
62903;SDS011;49000;50.698;13.322;2023-09-19T12:03:46;1.23;;;0.90;;
62903;SDS011;49000;50.698;13.322;2023-09-19T12:06:15;1.30;;;0.80;;
62903;SDS011;49000;50.698;13.322;2023-09-19T12:08:42;15.50;;;1.73;;
62903;SDS011;49000;50.698;13.322;2023-09-19T12:11:15;3.33;;;1.10;;
62903;SDS011;49000;50.698;13.322;2023-09-19T12:13:45;1.10;;;0.90;;
62903;SDS011;49000;50.698;13.322;2023-09-19T12:16:12;2.70;;;1.08;;
62903;SDS011;49000;50.698;13.322;2023-09-19T12:18:40;2.05;;;1.10;;
62903;SDS011;49000;50.698;13.322;2023-09-19T12:26:45;2.28;;;0.98;;
62903;SDS011;49000;50.698;13.322;2023-09-19T12:29:17;1.35;;;1.00;;
62903;SDS011;49000;50.698;13.322;2023-09-19T12:31:50;2.80;;;1.10;;
62903;SDS011;49000;50.698;13.322;2023-09-19T12:34:20;1.75;;;1.08;;
62903;SDS011;49000;50.698;13.322;2023-09-19T12:36:47;2.00;;;1.05;;
62903;SDS011;49000;50.698;13.322;2023-09-19T12:39:23;2.08;;;1.25;;
62903;SDS011;49000;50.698;13.322;2023-09-19T12:41:50;2.83;;;0.93;;
62903;SDS011;49000;50.698;13.322;2023-09-19T12:44:18;1.42;;;1.20;;
62903;SDS011;49000;50.698;13.322;2023-09-19T12:46:44;1.67;;;1.42;;
62903;SDS011;49000;50.698;13.322;2023-09-19T12:49:19;3.40;;;1.20;;
62903;SDS011;49000;50.698;13.322;2023-09-19T12:51:46;1.30;;;1.10;;
62903;SDS011;49000;50.698;13.322;2023-09-19T12:54:15;4.03;;;1.02;;
62903;SDS011;49000;50.698;13.322;2023-09-19T12:56:44;1.15;;;0.98;;
62903;SDS011;49000;50.698;13.322;2023-09-19T12:59:12;1.98;;;0.95;;
62903;SDS011;49000;50.698;13.322;2023-09-19T13:01:39;1.67;;;1.25;;
62903;SDS011;49000;50.698;13.322;2023-09-19T13:04:15;1.90;;;1.27;;
62903;SDS011;49000;50.698;13.322;2023-09-19T13:06:45;2.45;;;1.05;;
62903;SDS011;49000;50.698;13.322;2023-09-19T13:09:14;1.73;;;1.13;;
62903;SDS011;49000;50.698;13.322;2023-09-19T13:11:41;2.53;;;1.23;;
62903;SDS011;49000;50.698;13.322;2023-09-19T13:14:24;2.38;;;1.20;;
62903;SDS011;49000;50.698;13.322;2023-09-19T13:16:57;2.58;;;1.30;;
62903;SDS011;49000;50.698;13.322;2023-09-19T13:19:42;2.45;;;1.20;;
62903;SDS011;49000;50.698;13.322;2023-09-19T13:25:19;1.63;;;1.35;;
62903;SDS011;49000;50.698;13.322;2023-09-19T13:27:46;2.95;;;1.65;;
62903;SDS011;49000;50.698;13.322;2023-09-19T13:30:16;3.22;;;1.48;;
62903;SDS011;49000;50.698;13.322;2023-09-19T13:32:42;2.55;;;1.65;;
62903;SDS011;49000;50.698;13.322;2023-09-19T13:35:08;1.85;;;1.40;;
62903;SDS011;49000;50.698;13.322;2023-09-19T13:37:38;2.00;;;1.38;;
62903;SDS011;49000;50.698;13.322;2023-09-19T13:40:10;1.67;;;1.30;;
62903;SDS011;49000;50.698;13.322;2023-09-19T13:42:38;1.60;;;1.40;;
62903;SDS011;49000;50.698;13.322;2023-09-19T13:45:05;2.55;;;1.30;;
62903;SDS011;49000;50.698;13.322;2023-09-19T13:47:31;1.30;;;0.80;;
62903;SDS011;49000;50.698;13.322;2023-09-19T13:49:58;2.78;;;1.17;;
62903;SDS011;49000;50.698;13.322;2023-09-19T13:52:27;2.33;;;1.30;;
62903;SDS011;49000;50.698;13.322;2023-09-19T13:54:55;2.30;;;1.30;;
62903;SDS011;49000;50.698;13.322;2023-09-19T13:57:22;2.15;;;1.10;;
62903;SDS011;49000;50.698;13.322;2023-09-19T13:59:51;3.00;;;1.63;;
62903;SDS011;49000;50.698;13.322;2023-09-19T14:02:17;2.63;;;1.50;;
62903;SDS011;49000;50.698;13.322;2023-09-19T14:04:47;2.95;;;1.40;;
62903;SDS011;49000;50.698;13.322;2023-09-19T14:07:13;4.75;;;1.30;;
62903;SDS011;49000;50.698;13.322;2023-09-19T14:09:40;2.17;;;1.35;;
62903;SDS011;49000;50.698;13.322;2023-09-19T14:12:06;1.70;;;1.17;;
62903;SDS011;49000;50.698;13.322;2023-09-19T14:14:32;2.22;;;1.35;;
62903;SDS011;49000;50.698;13.322;2023-09-19T14:16:57;1.90;;;1.15;;
62903;SDS011;49000;50.698;13.322;2023-09-19T14:19:25;1.63;;;1.25;;
62903;SDS011;49000;50.698;13.322;2023-09-19T14:21:52;2.03;;;1.30;;
62903;SDS011;49000;50.698;13.322;2023-09-19T14:24:20;1.60;;;1.40;;
62903;SDS011;49000;50.698;13.322;2023-09-19T14:26:47;3.58;;;1.50;;
62903;SDS011;49000;50.698;13.322;2023-09-19T14:29:14;2.75;;;1.50;;
62903;SDS011;49000;50.698;13.322;2023-09-19T14:31:40;1.50;;;1.40;;
62903;SDS011;49000;50.698;13.322;2023-09-19T14:34:07;3.10;;;1.40;;
62903;SDS011;49000;50.698;13.322;2023-09-19T14:36:36;2.45;;;1.52;;
62903;SDS011;49000;50.698;13.322;2023-09-19T14:39:04;3.35;;;2.00;;
62903;SDS011;49000;50.698;13.322;2023-09-19T14:41:30;4.93;;;1.80;;
62903;SDS011;49000;50.698;13.322;2023-09-19T14:43:56;4.05;;;2.13;;
62903;SDS011;49000;50.698;13.322;2023-09-19T14:46:21;4.63;;;1.65;;
62903;SDS011;49000;50.698;13.322;2023-09-19T14:48:49;4.95;;;2.10;;
62903;SDS011;49000;50.698;13.322;2023-09-19T14:51:17;4.80;;;2.00;;
62903;SDS011;49000;50.698;13.322;2023-09-19T14:53:44;3.05;;;1.67;;
62903;SDS011;49000;50.698;13.322;2023-09-19T14:56:11;3.03;;;1.80;;
62903;SDS011;49000;50.698;13.322;2023-09-19T14:58:36;1.83;;;1.67;;
62903;SDS011;49000;50.698;13.322;2023-09-19T15:01:10;4.60;;;2.40;;
62903;SDS011;49000;50.698;13.322;2023-09-19T15:03:38;2.97;;;1.90;;
62903;SDS011;49000;50.698;13.322;2023-09-19T15:06:06;3.60;;;1.90;;
62903;SDS011;49000;50.698;13.322;2023-09-19T15:08:34;6.55;;;2.00;;
62903;SDS011;49000;50.698;13.322;2023-09-19T15:11:03;5.35;;;2.00;;
62903;SDS011;49000;50.698;13.322;2023-09-19T15:13:32;2.75;;;2.30;;
62903;SDS011;49000;50.698;13.322;2023-09-19T15:16:02;4.10;;;1.85;;
62903;SDS011;49000;50.698;13.322;2023-09-19T15:18:29;4.55;;;1.77;;
62903;SDS011;49000;50.698;13.322;2023-09-19T15:21:01;3.55;;;2.08;;
62903;SDS011;49000;50.698;13.322;2023-09-19T15:23:28;3.17;;;2.17;;
62903;SDS011;49000;50.698;13.322;2023-09-19T15:25:54;3.13;;;2.03;;
62903;SDS011;49000;50.698;13.322;2023-09-19T15:28:21;3.20;;;2.10;;
62903;SDS011;49000;50.698;13.322;2023-09-19T15:30:48;3.25;;;2.20;;
62903;SDS011;49000;50.698;13.322;2023-09-19T15:33:14;2.20;;;1.98;;
62903;SDS011;49000;50.698;13.322;2023-09-19T15:35:40;2.50;;;1.80;;